• Join FlightAware (Why Join?)
  • Login
  • US Flag 
01:43PM EDT


 

Airport Tracker/Info


-or-


 

Live Flight TrackerFlight Track Log ✈ N510SR ✈ 13-Jun-2013 ✈ KTEB - EGGW / LTN

Flight Track Log - Related Links

Times and Time Zones

All times are in EDT time to prevent confusion due to time zone crossing. See the N510SR flight status page for this flight to view local times or setup timezone preferences in your user account.

Time Position Orientation Groundspeed Altitude Reporting Facility
EDT Latitude Longitude Course Direction KTS MPH feet Rate Location/Type
10:27PM 40.9000 -74.0333 56° Northeast 189 217 2,000  Level New York TRACON
10:28PM 40.9500 -74.1000 315° West 273 314 4,000 1,860 Climbing New York TRACON
10:29PM 41.0333 -74.1333 343° North 248 285 6,000 960 Climbing New York TRACON
10:30PM 41.1000 -74.1333 360° North 266 306 6,000 1,320 Level New York TRACON
10:31PM 41.1539 -73.9867 64° Northeast 287 330 9,400 1,860 Climbing Boston Center
10:32PM 41.2943 -73.4780 56° Northeast  Level FlightAware Approximate
10:32PM 41.1783 -73.8769 73° East 297 342 11,000  Level Boston Center
10:33PM 41.1339 -73.7711 119° Southeast 296 341 13,100 2,100 Climbing Boston Center
10:34PM 41.1247 -73.6469 96° East 321 369 15,200 2,220 Climbing Boston Center
10:35PM 41.1822 -73.5294 57° Northeast 361 415 17,600 2,340 Climbing Boston Center
10:36PM 41.2417 -73.4172 55° Northeast 381 438 19,900 1,980 Climbing Boston Center
10:37PM 41.3050 -73.2939 56° Northeast 393 452 21,600 1,320 Climbing Boston Center
10:38PM 41.3706 -73.1647 56° Northeast 398 458 22,600 1,140 Climbing Boston Center
10:39PM 41.4319 -73.0269 59° Northeast 416 479 23,900 1,200 Climbing Boston Center
10:40PM 41.4931 -72.8836 60° Northeast 429 494 25,100 1,140 Climbing Boston Center
10:41PM 41.5561 -72.7203 63° Northeast 434 499 26,200 1,020 Climbing Boston Center
10:42PM 41.6167 -72.5650 62° Northeast 450 518 27,200 900 Climbing Boston Center
10:43PM 41.6772 -72.3983 64° Northeast 469 540 28,100 900 Climbing Boston Center
10:44PM 41.7417 -72.2314 63° Northeast 482 555 29,100 960 Climbing Boston Center
10:45PM 41.8058 -72.0642 63° Northeast 493 567 30,100 900 Climbing Boston Center
10:46PM 41.8697 -71.8936 63° Northeast 498 573 31,000 1,140 Climbing Boston Center
10:47PM 41.9292 -71.7342 63° Northeast 511 588 32,400 1,260 Climbing Boston Center
10:48PM 42.0072 -71.5489 60° Northeast 511 588 33,600 1,200 Climbing Boston Center
10:49PM 42.0703 -71.3772 64° Northeast 511 588 34,800 1,200 Climbing Boston Center
10:50PM 42.1353 -71.2000 64° Northeast 511 588 36,100 1,080 Climbing Boston Center
10:51PM 42.1978 -71.0278 64° Northeast 511 588 37,000 900 Climbing Boston Center
10:52PM 42.2622 -70.8550 63° Northeast 511 588 37,900 900 Climbing Boston Center
10:53PM 42.3139 -70.6881 67° East 511 588 38,800 900 Climbing Boston Center
10:54PM 42.3800 -70.5175 62° Northeast 511 588 39,800 1,080 Climbing Boston Center
10:55PM 42.4394 -70.3469 65° Northeast 505 581 41,000 600 Climbing Boston Center
10:56PM 42.5008 -70.1758 64° Northeast 505 581 41,100  Climbing Boston Center
10:57PM 42.5619 -70.0017 64° Northeast 500 575 41,000 -60 Descending Boston Center
10:58PM 42.6247 -69.8272 64° Northeast 510 587 41,000  Level Boston Center
10:59PM 42.6892 -69.6464 64° Northeast 515 593 41,000  Level Boston Center
11:00PM 42.7494 -69.4711 65° Northeast 510 587 41,000  Level Boston Center
11:01PM 42.7833 -69.2833 76° East 520 598 41,000  Level Moncton Center
11:02PM 42.8667 -69.1167 56° Northeast 520 598 41,000  Level Moncton Center
11:03PM 42.9397 -68.9086 64° Northeast 510 587 41,000  Level Boston Center
11:04PM 43.0006 -68.7264 65° Northeast 510 587 41,000  Level Boston Center
11:05PM 43.0558 -68.5722 64° Northeast 510 587 41,000  Level Boston Center
11:06PM 43.1161 -68.3892 66° East 510 587 41,000  Level Boston Center
11:07PM 43.1764 -68.2058 66° East 510 587 41,000  Level Boston Center
11:08PM 43.2361 -68.0247 66° East 510 587 41,000  Level Boston Center
11:09PM 43.2978 -67.8406 65° Northeast 515 593 41,000  Level Boston Center
11:10PM 43.3569 -67.6561 66° East 515 593 41,000  Level Boston Center
11:11PM 43.4156 -67.4683 67° East 520 598 41,000  Level Boston Center
11:12PM 43.4761 -67.2831 66° East 520 598 41,000  Level Boston Center
11:13PM 43.5342 -67.0947 67° East 520 598 41,000  Level Boston Center
11:14PM 43.5833 -66.8833 72° East 530 610 41,000  Level Moncton Center
11:15PM 43.6500 -66.7000 63° Northeast 540 621 41,000  Level Moncton Center
11:16PM 43.7000 -66.5000 71° East 540 621 41,000  Level Moncton Center
11:17PM 43.7500 -66.3167 69° East 540 621 41,000  Level Moncton Center
11:18PM 43.8000 -66.1167 71° East 540 621 41,000  Level Moncton Center
11:19PM 43.8667 -65.9333 63° Northeast 540 621 41,000  Level Moncton Center
11:20PM 43.9167 -65.7167 72° East 540 621 41,100  Climbing Moncton Center
11:21PM 43.9667 -65.5333 69° East 540 621 41,000  Descending Moncton Center
11:22PM 44.0167 -65.3333 71° East 540 621 41,100  Climbing Moncton Center
11:23PM 44.0667 -65.1333 71° East 540 621 41,100 -60 Level Moncton Center
11:24PM 44.1333 -64.9333 65° Northeast 540 621 41,000 -60 Descending Moncton Center
11:25PM 44.1833 -64.7500 69° East 540 621 41,000  Level Moncton Center
11:26PM 44.2333 -64.5667 69° East 540 621 41,000  Level Moncton Center
11:27PM 44.2833 -64.3500 72° East 540 621 41,100  Climbing Moncton Center
11:28PM 44.3333 -64.1667 69° East 540 621 41,000 -60 Descending Moncton Center
11:29PM 44.3833 -63.9500 72° East 540 621 41,000  Level Moncton Center
11:30PM 44.4333 -63.7667 69° East 540 621 41,000  Level Moncton Center
11:31PM 44.4833 -63.5500 72° East 540 621 41,000  Level Moncton Center
11:32PM 44.5333 -63.3667 69° East 540 621 41,000  Level Moncton Center
11:33PM 44.5833 -63.1500 72° East 540 621 41,000  Level Moncton Center
11:34PM 44.6333 -62.9667 69° East 540 621 41,100  Climbing Moncton Center
11:35PM 44.7000 -62.7500 67° East 540 621 41,000 -60 Descending Moncton Center
11:36PM 44.7333 -62.5667 76° East 540 621 41,000  Level Moncton Center
11:37PM 44.7833 -62.3500 72° East 540 621 41,100  Climbing Moncton Center
11:38PM 44.8333 -62.1500 71° East 540 621 41,100  Level Moncton Center
11:39PM 44.8833 -61.9667 69° East 540 621 41,100 -60 Level Moncton Center
11:40PM 44.9167 -61.7500 78° East 540 621 41,000  Descending Moncton Center
11:41PM 44.9667 -61.5667 69° East 540 621 41,100  Climbing Moncton Center
11:42PM 45.0167 -61.3500 72° East 540 621 41,100  Level Moncton Center
11:43PM 45.0667 -61.1500 70° East 540 621 41,100  Level Moncton Center
11:44PM 45.1000 -60.9333 78° East 540 621 41,100  Level Moncton Center
11:45PM 45.1667 -60.7167 66° East 540 621 41,100  Level Moncton Center
11:46PM 45.2000 -60.5333 75° East 540 621 41,100 -60 Level Moncton Center
11:47PM 45.2500 -60.3333 70° East 540 621 41,000  Descending Moncton Center
11:48PM 45.3000 -60.1167 72° East 530 610 41,100  Climbing Moncton Center
11:49PM 45.3333 -59.9500 74° East 530 610 41,100 -60 Level Moncton Center
11:50PM 45.3833 -59.7333 72° East 530 610 41,000  Descending Moncton Center
11:51PM 45.4167 -59.5333 77° East 530 610 41,100  Climbing Moncton Center
11:52PM 45.4667 -59.3167 72° East 530 610 41,100  Level Moncton Center
11:53PM 45.5000 -59.1167 77° East 530 610 41,100  Level Moncton Center
11:54PM 45.5333 -58.9167 77° East 520 598 41,100  Level Moncton Center
11:55PM 45.5833 -58.7333 69° East 520 598 41,100  Level Moncton Center
11:56PM 45.6167 -58.5333 77° East 520 598 41,100  Level Moncton Center
11:57PM 45.6667 -58.3333 70° East 520 598 41,100 -60 Level Moncton Center
11:58PM 45.7000 -58.1167 78° East 520 598 41,000  Descending Moncton Center
11:59PM 45.7333 -57.9167 77° East 520 598 41,100  Climbing Moncton Center
12:00AM 45.7833 -57.7500 67° East 520 598 41,000 -60 Descending Moncton Center
12:01AM 45.8167 -57.5333 77° East 520 598 41,000  Level Moncton Center
12:02AM 45.8500 -57.3333 76° East 520 598 41,000  Level Moncton Center
12:03AM 45.8833 -57.1333 76° East 520 598 41,000  Level Moncton Center
12:04AM 45.9333 -56.9333 70° East 520 598 41,000  Level Moncton Center
12:05AM 45.9667 -56.7333 76° East 510 587 41,000  Level Moncton Center
12:06AM 46.0000 -56.5333 76° East 510 587 41,000  Level Moncton Center
12:07AM 46.0333 -56.3333 76° East 500 575 41,000  Level Moncton Center
12:08AM 46.0667 -56.1333 76° East 500 575 41,100  Climbing Moncton Center
12:09AM 46.1167 -55.9333 70° East 500 575 41,100  Level Moncton Center
12:10AM 46.1500 -55.7667 74° East 520 598 41,100 -60 Level Moncton Center
12:11AM 46.1833 -55.5667 76° East 500 575 41,000  Descending Moncton Center
12:12AM 46.2000 -55.3667 83° East 510 587 41,100 60 Climbing Moncton Center
12:13AM 46.2333 -55.2500 68° East 510 587 41,100  Level Gander Center
12:13AM 46.2333 -55.1667 90° East 510 587 41,100 -120 Level Gander Center
12:14AM 46.2833 -54.9500 71° East 510 587 41,000  Descending Gander Center
12:15AM 46.3000 -54.7833 82° East 510 587 41,100  Climbing Moncton Center
12:16AM 46.3333 -54.5667 77° East 510 587 41,000  Descending Moncton Center
12:17AM 46.3667 -54.3833 75° East 510 587 41,100  Climbing Moncton Center
12:18AM 46.4000 -54.1667 77° East 500 575 41,000  Descending Moncton Center
12:19AM 46.4333 -53.9833 75° East 500 575 41,100  Climbing Moncton Center
12:20AM 46.4667 -53.7833 76° East 510 587 41,000 -60 Descending Moncton Center
12:21AM 46.5000 -53.5833 76° East 500 575 41,000  Level Moncton Center
12:22AM 46.5167 -53.3833 83° East 500 575 41,000  Level Moncton Center
12:23AM 46.5500 -53.1833 76° East 500 575 41,000  Level Moncton Center
12:24AM 46.5667 -53.0000 82° East 490 564 41,000  Level Moncton Center
12:25AM 46.6000 -52.8000 76° East 490 564 41,000  Level Moncton Center
12:26AM 46.6333 -52.6667 70° East 490 564 41,000  Level Gander Center
12:26AM 46.6333 -52.6167 90° East 490 564 41,000  Level Moncton Center
12:27AM 46.6667 -52.4167 76° East 490 564 41,000  Level Moncton Center
12:28AM 46.6833 -52.2167 83° East 490 564 41,100  Climbing Moncton Center
12:29AM 46.7167 -52.0167 76° East 490 564 41,000 -60 Descending Moncton Center
12:30AM 46.7500 -51.8333 75° East 490 564 41,000  Level Moncton Center
12:31AM 46.7667 -51.7167 78° East 490 564 41,000  Level Gander Center
12:31AM 46.7667 -51.6333 90° East 490 564 41,000  Level Gander Center
12:32AM 46.7833 -51.4500 82° East 490 564 41,000  Level Moncton Center
12:33AM 46.8167 -51.2500 76° East 490 564 41,000  Level Moncton Center
12:34AM 46.8500 -51.0500 76° East 490 564 41,000  Level Moncton Center
12:35AM 46.8667 -50.8667 82° East 490 564 41,000  Level Moncton Center
12:36AM 46.9000 -50.6500 77° East 490 564 41,000  Level Gander Center
12:37AM 46.9167 -50.4500 83° East 490 564 41,000  Level Gander Center
12:38AM 46.9500 -50.2500 76° East 490 564 41,000  Level Gander Center
12:39AM 46.9833 -50.0500 78° East 490 564 41,000  Level Gander Center
12:40AM 47.0000 -50.0000 78° East 511 588 41,000  Level ETMS Enhanced Traffic Management System
12:40AM 47.0000 -49.8667 82° East 490 564 41,000  Level Gander Center
12:41AM 47.0167 -49.6667 83° East 490 564 41,000  Level Gander Center
12:42AM 47.0500 -49.4667 76° East 500 575 41,000  Level Gander Center
12:43AM 47.0833 -49.2833 75° East 500 575 41,000  Level Gander Center
12:44AM 47.1167 -49.0833 76° East 500 575 41,000  Level Gander Center
12:45AM 47.1333 -48.9500 80° East 500 575 41,000  Level Gander Center
12:46AM 47.1333 -48.7833 90° East 500 575 41,000  Level Gander Center
12:47AM 47.1667 -48.5667 77° East 500 575 41,000  Level Gander Center
12:47AM 47.1833 -48.4667 76° East 500 575 41,000  Level Gander Center
12:48AM 47.2000 -48.3667 76° East 500 575 41,000  Level Gander Center
12:49AM 47.2167 -48.1667 83° East 510 587 41,000  Level Gander Center
12:49AM 47.2333 -48.0833 74° East 500 575 41,000  Level Gander Center
12:50AM 47.2667 -47.8667 77° East 510 587 41,000  Level Gander Center
12:51AM 47.3000 -47.6667 76° East 500 575 41,000  Level Gander Center
12:52AM 47.3167 -47.4667 83° East 510 587 41,100  Climbing Gander Center
12:53AM 47.3500 -47.2500 77° East 510 587 41,100  Level Gander Center
12:54AM 47.3500 -47.0500 90° East 500 575 41,100 -60 Level Gander Center
12:57AM 47.3901 -46.7458 79° East  Level FlightAware Approximate
01:04AM 47.5613 -45.3666 79° East  Level FlightAware Approximate
01:05AM 47.5844 -45.1688 80° East  Level FlightAware Approximate
01:06AM 47.6062 -44.9699 82° East  Level FlightAware Approximate
01:07AM 47.6254 -44.7711 82° East  Level FlightAware Approximate
01:08AM 47.6442 -44.5721 82° East  Level FlightAware Approximate
01:09AM 47.6627 -44.3730 82° East  Level FlightAware Approximate
01:10AM 47.6808 -44.1737 82° East  Level FlightAware Approximate
01:11AM 47.6986 -43.9743 82° East  Level FlightAware Approximate
01:12AM 47.7161 -43.7747 83° East  Level FlightAware Approximate
01:13AM 47.7332 -43.5751 83° East  Level FlightAware Approximate
01:14AM 47.7500 -43.3753 83° East  Level FlightAware Approximate
01:15AM 47.7664 -43.1754 83° East  Level FlightAware Approximate
01:16AM 47.7824 -42.9753 83° East  Level FlightAware Approximate
01:17AM 47.7982 -42.7751 83° East  Level FlightAware Approximate
01:18AM 47.8135 -42.5748 83° East  Level FlightAware Approximate
01:19AM 47.8298 -42.3746 83° East  Level FlightAware Approximate
01:20AM 47.8461 -42.1744 83° East  Level FlightAware Approximate
01:21AM 47.8621 -41.9740 83° East  Level FlightAware Approximate
01:22AM 47.8777 -41.7735 83° East  Level FlightAware Approximate
01:23AM 47.8929 -41.5729 83° East  Level FlightAware Approximate
01:24AM 47.9078 -41.3721 84° East  Level FlightAware Approximate
01:25AM 47.9223 -41.1713 84° East  Level FlightAware Approximate
01:26AM 47.9365 -40.9703 84° East  Level FlightAware Approximate
01:27AM 47.9504 -40.7692 84° East  Level FlightAware Approximate
01:28AM 47.9638 -40.5681 84° East  Level FlightAware Approximate
01:29AM 47.9770 -40.3668 84° East  Level FlightAware Approximate
01:29AM 48.0000 -40.0000 69° East 524 603 41,000  Level ETMS Enhanced Traffic Management System
01:30AM 47.9898 -40.1654 85° East  Level FlightAware Approximate
01:31AM 48.0086 -39.9661 69° East  Level FlightAware Approximate
01:32AM 48.0562 -39.7765 69° East  Level FlightAware Approximate
01:33AM 48.1035 -39.5867 69° East  Level FlightAware Approximate
01:34AM 48.1505 -39.3964 70° East  Level FlightAware Approximate
01:35AM 48.4005 -38.3564 71° East 524 603 41,000  Level FlightAware Transoceanic
01:36AM 48.4489 -38.1491 71° East 524 603 41,000  Level FlightAware Transoceanic
01:37AM 48.4969 -37.9415 71° East 524 603 41,000  Level FlightAware Transoceanic
01:38AM 48.5445 -37.7335 71° East 524 603 41,000  Level FlightAware Transoceanic
01:39AM 48.5918 -37.5250 71° East 524 603 41,000  Level FlightAware Transoceanic
01:40AM 48.6387 -37.3162 71° East 524 603 41,000  Level FlightAware Transoceanic
01:41AM 48.6852 -37.1070 71° East 524 603 41,000  Level FlightAware Transoceanic
01:42AM 48.7314 -36.8974 72° East 524 603 41,000  Level FlightAware Transoceanic
01:43AM 48.7771 -36.6875 72° East 524 603 41,000  Level FlightAware Transoceanic
01:44AM 48.8225 -36.4771 72° East 524 603 41,000  Level FlightAware Transoceanic
01:45AM 48.8675 -36.2664 72° East 524 603 41,000  Level FlightAware Transoceanic
01:46AM 48.9121 -36.0553 72° East 524 603 41,000  Level FlightAware Transoceanic
01:47AM 48.9563 -35.8438 72° East 524 603 41,000  Level FlightAware Transoceanic
01:48AM 49.0002 -35.6319 73° East 524 603 41,000  Level FlightAware Transoceanic
01:49AM 49.0436 -35.4197 73° East 524 603 41,000  Level FlightAware Transoceanic
01:50AM 49.0867 -35.2071 73° East 524 603 41,000  Level FlightAware Transoceanic
01:51AM 49.1294 -34.9941 73° East 524 603 41,000  Level FlightAware Transoceanic
01:52AM 49.1716 -34.7808 73° East 524 603 41,000  Level FlightAware Transoceanic
01:53AM 49.2135 -34.5671 73° East 524 603 41,000  Level FlightAware Transoceanic
01:54AM 49.2550 -34.3530 74° East 524 603 41,000  Level FlightAware Transoceanic
01:55AM 49.2961 -34.1386 74° East 524 603 41,000  Level FlightAware Transoceanic
01:56AM 49.3368 -33.9239 74° East 524 603 41,000  Level FlightAware Transoceanic
01:57AM 49.3771 -33.7087 74° East 524 603 41,000  Level FlightAware Transoceanic
01:58AM 49.4170 -33.4933 74° East 524 603 41,000  Level FlightAware Transoceanic
01:59AM 49.4565 -33.2774 74° East 524 603 41,000  Level FlightAware Transoceanic
02:00AM 49.4956 -33.0613 75° East 524 603 41,000  Level FlightAware Transoceanic
02:01AM 49.5343 -32.8447 75° East 524 603 41,000  Level FlightAware Transoceanic
02:02AM 49.5726 -32.6279 75° East 524 603 41,000  Level FlightAware Transoceanic
02:03AM 49.6104 -32.4107 75° East 524 603 41,000  Level FlightAware Transoceanic
02:04AM 49.6479 -32.1932 75° East 524 603 41,000  Level FlightAware Transoceanic
02:05AM 49.6850 -31.9753 75° East 524 603 41,000  Level FlightAware Transoceanic
02:06AM 49.7216 -31.7571 76° East 524 603 41,000  Level FlightAware Transoceanic
02:07AM 49.7579 -31.5386 76° East 524 603 41,000  Level FlightAware Transoceanic
02:08AM 49.7937 -31.3197 76° East 524 603 41,000  Level FlightAware Transoceanic
02:09AM 49.8291 -31.1006 76° East 524 603 41,000  Level FlightAware Transoceanic
02:10AM 49.8641 -30.8811 76° East 524 603 41,000  Level FlightAware Transoceanic
02:11AM 49.8987 -30.6613 76° East 524 603 41,000  Level FlightAware Transoceanic
02:12AM 49.9329 -30.4412 77° East 524 603 41,000  Level FlightAware Transoceanic
02:13AM 49.9667 -30.2207 77° East 524 603 41,000  Level FlightAware Transoceanic
02:14AM 49.9976 -30.0158 77° East  Level FlightAware Approximate
02:15AM 50.0282 -29.8105 77° East  Level FlightAware Approximate
02:16AM 50.0418 -29.8339 69° East  Level FlightAware Approximate
02:17AM 50.0910 -29.6374 69° East  Level FlightAware Approximate
02:18AM 50.1398 -29.4404 69° East  Level FlightAware Approximate
02:18AM 50.0000 -30.0000 69° East 516 594 41,000  Level ETMS Enhanced Traffic Management System
02:19AM 50.1882 -29.2430 69° East  Level FlightAware Approximate
02:20AM 50.2364 -29.0453 69° East  Level FlightAware Approximate
02:21AM 50.2841 -28.8471 69° East  Level FlightAware Approximate
02:22AM 50.3316 -28.6485 69° East  Level FlightAware Approximate
02:23AM 50.3787 -28.4496 70° East  Level FlightAware Approximate
02:24AM 50.5549 -27.6891 70° East 516 594 41,000  Level FlightAware Transoceanic
02:25AM 50.6030 -27.4763 70° East 516 594 41,000  Level FlightAware Transoceanic
02:26AM 50.6508 -27.2632 71° East 516 594 41,000  Level FlightAware Transoceanic
02:27AM 50.6982 -27.0496 71° East 516 594 41,000  Level FlightAware Transoceanic
02:28AM 50.7451 -26.8355 71° East 516 594 41,000  Level FlightAware Transoceanic
02:29AM 50.7917 -26.6211 71° East 516 594 41,000  Level FlightAware Transoceanic
02:30AM 50.8379 -26.4062 71° East 516 594 41,000  Level FlightAware Transoceanic
02:31AM 50.8837 -26.1909 71° East 516 594 41,000  Level FlightAware Transoceanic
02:32AM 50.9291 -25.9751 72° East 516 594 41,000  Level FlightAware Transoceanic
02:33AM 50.9741 -25.7590 72° East 516 594 41,000  Level FlightAware Transoceanic
02:34AM 51.0187 -25.5424 72° East 516 594 41,000  Level FlightAware Transoceanic
02:35AM 51.0629 -25.3255 72° East 516 594 41,000  Level FlightAware Transoceanic
02:36AM 51.1067 -25.1080 72° East 516 594 41,000  Level FlightAware Transoceanic
02:37AM 51.1501 -24.8902 72° East 516 594 41,000  Level FlightAware Transoceanic
02:38AM 51.1931 -24.6720 73° East 516 594 41,000  Level FlightAware Transoceanic
02:39AM 51.2357 -24.4534 73° East 516 594 41,000  Level FlightAware Transoceanic
02:40AM 51.2779 -24.2344 73° East 516 594 41,000  Level FlightAware Transoceanic
02:41AM 51.3197 -24.0150 73° East 516 594 41,000  Level FlightAware Transoceanic
02:42AM 51.3610 -23.7951 73° East 516 594 41,000  Level FlightAware Transoceanic
02:43AM 51.4020 -23.5749 73° East 516 594 41,000  Level FlightAware Transoceanic
02:44AM 51.4425 -23.3543 74° East 516 594 41,000  Level FlightAware Transoceanic
02:45AM 51.4826 -23.1333 74° East 516 594 41,000  Level FlightAware Transoceanic
02:46AM 51.5223 -22.9119 74° East 516 594 41,000  Level FlightAware Transoceanic
02:47AM 51.5616 -22.6901 74° East 516 594 41,000  Level FlightAware Transoceanic
02:48AM 51.6005 -22.4680 74° East 516 594 41,000  Level FlightAware Transoceanic
02:49AM 51.6389 -22.2455 75° East 516 594 41,000  Level FlightAware Transoceanic
02:50AM 51.6769 -22.0226 75° East 516 594 41,000  Level FlightAware Transoceanic
02:51AM 51.7146 -21.7993 75° East 516 594 41,000  Level FlightAware Transoceanic
02:52AM 51.7517 -21.5756 75° East 516 594 41,000  Level FlightAware Transoceanic
02:53AM 51.7885 -21.3516 75° East 516 594 41,000  Level FlightAware Transoceanic
02:54AM 51.8248 -21.1272 75° East 516 594 41,000  Level FlightAware Transoceanic
02:55AM 51.8607 -20.9025 76° East 516 594 41,000  Level FlightAware Transoceanic
02:56AM 51.8962 -20.6774 76° East 516 594 41,000  Level FlightAware Transoceanic
02:57AM 51.9312 -20.4520 76° East 516 594 41,000  Level FlightAware Transoceanic
02:58AM 51.9658 -20.2262 76° East 516 594 41,000  Level FlightAware Transoceanic
02:59AM 51.9981 -20.0126 76° East  Level FlightAware Approximate
03:00AM 52.0300 -19.7988 76° East  Level FlightAware Approximate
03:01AM 52.0072 -19.8064 86° East  Level FlightAware Approximate
03:02AM 52.0149 -19.5868 87° East  Level FlightAware Approximate
03:03AM 52.0223 -19.3671 87° East  Level FlightAware Approximate
03:04AM 52.0292 -19.1473 87° East  Level FlightAware Approximate
03:05AM 52.0358 -18.9275 87° East  Level FlightAware Approximate
03:06AM 52.0419 -18.7076 87° East  Level FlightAware Approximate
03:07AM 52.0476 -18.4877 87° East  Level FlightAware Approximate
03:08AM 52.0529 -18.2677 88° East  Level FlightAware Approximate
03:09AM 52.0578 -18.0476 88° East  Level FlightAware Approximate
03:10AM 52.0623 -17.8275 88° East  Level FlightAware Approximate
03:11AM 52.0663 -17.6073 88° East  Level FlightAware Approximate
03:12AM 52.0700 -17.3872 88° East  Level FlightAware Approximate
03:13AM 52.0732 -17.1669 89° East  Level FlightAware Approximate
03:14AM 52.0761 -16.9467 89° East  Level FlightAware Approximate
03:15AM 52.0785 -16.7264 89° East  Level FlightAware Approximate
03:16AM 52.0805 -16.5061 89° East  Level FlightAware Approximate
03:17AM 52.0821 -16.2858 89° East  Level FlightAware Approximate
03:18AM 52.0833 -16.0655 89° East  Level FlightAware Approximate
03:19AM 52.0841 -15.8451 90° East  Level FlightAware Approximate
03:20AM 52.0845 -15.6248 90° East  Level FlightAware Approximate
03:21AM 52.0845 -15.4044 90° East  Level FlightAware Approximate
03:22AM 52.0840 -15.1841 90° East  Level FlightAware Approximate
03:23AM 52.0833 -14.9638 90° East  Level FlightAware Approximate
03:24AM 52.0826 -14.7434 90° East  Level FlightAware Approximate
03:25AM 52.0816 -14.5231 90° East  Level FlightAware Approximate
03:26AM 52.0801 -14.3028 91° East  Level FlightAware Approximate
03:27AM 52.0782 -14.0825 91° East  Level FlightAware Approximate
03:28AM 52.0760 -13.8622 91° East  Level FlightAware Approximate
03:29AM 52.0732 -13.6419 91° East  Level FlightAware Approximate
03:30AM 52.0701 -13.4217 91° East  Level FlightAware Approximate
03:31AM 52.0666 -13.2015 91° East  Level FlightAware Approximate
03:32AM 52.0627 -12.9814 92° East  Level FlightAware Approximate
03:33AM 52.0583 -12.7613 92° East  Level FlightAware Approximate
03:34AM 52.0536 -12.5412 92° East  Level FlightAware Approximate
03:35AM 52.0484 -12.3212 92° East  Level FlightAware Approximate
03:36AM 52.0429 -12.1012 92° East  Level FlightAware Approximate
03:37AM 52.0369 -11.8813 92° East  Level FlightAware Approximate
03:38AM 52.0305 -11.6615 93° East  Level FlightAware Approximate
03:39AM 52.0237 -11.4417 93° East  Level FlightAware Approximate
03:40AM 52.0165 -11.2219 93° East  Level FlightAware Approximate
03:41AM 52.0089 -11.0023 93° East  Level FlightAware Approximate
03:42AM 52.0009 -10.7827 93° East  Level FlightAware Approximate
03:43AM 51.9925 -10.5632 93° East  Level FlightAware Approximate
03:44AM 51.9836 -10.3438 94° East  Level FlightAware Approximate
03:45AM 51.9744 -10.1245 94° East  Level FlightAware Approximate
03:46AM 51.9647 -9.9053 94° East  Level FlightAware Approximate
03:47AM 51.9547 -9.6862 94° East  Level FlightAware Approximate
03:48AM 51.9442 -9.4671 94° East  Level FlightAware Approximate
03:49AM 51.9333 -9.2482 95° East  Level FlightAware Approximate
03:49AM 51.9068 -8.9877 95° East 480 552 41,000  Level FlightAware UK
03:49AM 51.9017 -8.8717 94° East 482 555 41,000  Level FlightAware UK
03:50AM 51.8968 -8.7557 94° East 480 552 41,000  Level FlightAware UK
03:50AM 51.8916 -8.6394 94° East 482 555 41,000  Level FlightAware UK
03:51AM 51.8863 -8.5231 94° East 484 557 41,000  Level FlightAware UK
03:51AM 51.8809 -8.4067 94° East 484 557 41,000  Level FlightAware UK
03:52AM 51.8754 -8.2903 94° East 482 555 41,000  Level FlightAware UK
03:52AM 51.8700 -8.1732 94° East 484 557 41,000  Level FlightAware UK
03:53AM 51.8645 -8.0570 94° East 486 559 41,000  Level FlightAware UK
03:53AM 51.8592 -7.9410 94° East 484 557 41,000  Level FlightAware UK
03:54AM 51.8534 -7.8251 95° East 484 557 41,000  Level FlightAware UK
03:54AM 51.8474 -7.7096 95° East 482 555 41,000  Level FlightAware UK
03:55AM 51.8417 -7.5941 95° East 480 552 41,000  Level FlightAware UK
03:55AM 51.8354 -7.4787 95° East 482 555 41,000  Level FlightAware UK
03:56AM 51.8281 -7.3633 96° East 484 557 41,000  Level FlightAware UK
03:56AM 51.8216 -7.2478 95° East 484 557 41,000  Level FlightAware UK
03:57AM 51.8153 -7.1323 95° East 480 552 41,000  Level FlightAware UK
03:57AM 51.8089 -7.0159 95° East 480 552 41,000  Level FlightAware UK
03:58AM 51.8023 -6.9003 95° East 484 557 41,000  Level FlightAware UK
03:58AM 51.8037 -6.7837 89° East 488 562 41,000  Level FlightAware UK
03:59AM 51.8041 -6.6679 90° East 486 559 41,000  Level FlightAware UK
03:59AM 51.8046 -6.5529 90° East 482 555 41,000  Level FlightAware UK
04:00AM 51.8047 -6.4389 90° East 478 550 41,000  Level FlightAware UK
04:00AM 51.8052 -6.3237 90° East 478 550 41,000  Level FlightAware UK
04:01AM 51.8057 -6.2087 90° East 480 552 41,000  Level FlightAware UK
04:01AM 51.8064 -6.0936 89° East 482 555 41,000  Level FlightAware UK
04:02AM 51.8069 -5.9782 90° East 484 557 41,000  Level FlightAware UK
04:02AM 51.8070 -5.8618 90° East 482 555 41,000  Level FlightAware UK
04:03AM 51.8072 -5.7462 90° East 482 555 41,000  Level FlightAware UK
04:05AM 51.8009 -5.2174 91° East 484 557 41,000 -300 Level FlightAware UK
04:06AM 51.7911 -5.0108 94° East 482 555 40,100 -1,260 Descending FlightAware UK
04:07AM 51.7858 -4.8896 94° East 494 568 39,300 -1,560 Descending FlightAware UK
04:07AM 51.7800 -4.7445 94° East 498 573 38,400 -1,380 Descending FlightAware UK
04:08AM 51.7749 -4.6239 94° East 492 566 37,800 -1,020 Descending FlightAware UK
04:08AM 51.7700 -4.4794 93° East 488 562 37,300 -1,140 Descending FlightAware UK
04:09AM 51.7662 -4.3603 93° East 486 559 36,600 -1,500 Descending FlightAware UK
04:09AM 51.7620 -4.2423 93° East 482 555 35,800 -1,620 Descending FlightAware UK
04:10AM 51.7584 -4.1247 93° East 480 552 35,000 -1,560 Descending FlightAware UK
04:10AM 51.7539 -3.9823 93° East 486 559 34,100 -960 Descending FlightAware UK
04:11AM 51.7443 -3.8670 98° East 480 552 34,000 -120 Descending FlightAware UK
04:11AM 51.7352 -3.7523 97° East 478 550 34,000  Level FlightAware UK
04:12AM 51.7264 -3.6378 97° East 476 548 34,000  Level FlightAware UK
04:12AM 51.7177 -3.5231 97° East 476 548 34,000  Level FlightAware UK
04:13AM 51.7036 -3.3392 97° East 478 550 34,000  Level FlightAware UK
04:14AM 51.6929 -3.2011 97° East 476 548 34,000  Level FlightAware UK
04:14AM 51.6836 -3.0852 97° East 478 550 34,000 -900 Level FlightAware UK
04:15AM 51.6728 -2.9462 97° East 478 550 33,000 -2,760 Descending FlightAware UK
04:15AM 51.6636 -2.8084 96° East 472 543 30,700 -3,300 Descending FlightAware UK
04:16AM 51.6508 -2.6957 100° East 478 550 29,400 -2,100 Descending FlightAware UK
04:17AM 51.6194 -2.4733 103° East 472 543 27,600 -1,980 Descending FlightAware UK
04:18AM 51.6008 -2.3466 103° East 458 527 26,300 -2,340 Descending FlightAware UK
04:18AM 51.5717 -2.1585 104° East 452 520 24,100 -2,460 Descending FlightAware UK
04:19AM 51.5485 -2.0183 105° East 438 504 22,400 -2,460 Descending FlightAware UK
04:20AM 51.5314 -1.9197 106° East 434 499 21,200 -2,220 Descending FlightAware UK
04:20AM 51.5055 -1.7689 105° East 414 476 19,500 -1,980 Descending FlightAware UK
04:21AM 51.4861 -1.6648 107° East 390 449 18,500 -1,260 Descending FlightAware UK
04:22AM 51.4673 -1.5569 106° East 402 463 18,000 -420 Descending FlightAware UK
04:22AM 51.4451 -1.4303 106° East 402 463 18,000  Level FlightAware UK
04:23AM 51.4262 -1.3206 105° East 400 460 18,000  Level FlightAware UK
04:24AM 51.4080 -1.2132 105° East 400 460 18,000  Level FlightAware UK
04:24AM 51.3967 -1.0444 96° East 400 460 18,000  Level FlightAware UK
04:25AM 51.4032 -0.9107 85° East 402 463 18,000  Level FlightAware UK
04:26AM 51.4087 -0.8160 85° East 400 460 18,000  Level FlightAware UK
04:26AM 51.4152 -0.7017 85° East 410 472 18,000  Level FlightAware UK
04:27AM 51.4439 -0.4745 78° East 406 467 18,000  Level FlightAware UK
04:28AM 51.4806 -0.3746 59° Northeast 408 470 18,000 -900 Level FlightAware UK
04:29AM 51.5208 -0.3034 48° Northeast 398 458 17,000 -2,460 Descending FlightAware UK
04:30AM 51.6065 -0.1757 43° Northeast 380 437 14,300 -2,640 Descending FlightAware UK
04:30AM 51.6468 -0.1163 42° Northeast 364 419 13,100 -2,220 Descending FlightAware UK
04:31AM 51.6852 -0.0591 43° Northeast 346 398 12,100 -1,440 Descending FlightAware UK
04:31AM 51.7199 -0.0069 43° Northeast 310 357 11,700 -1,740 Descending FlightAware UK
04:32AM 51.8177 0.0420 17° North 296 341 9,200 -1,740 Descending FlightAware UK
04:33AM 51.8498 0.0461 North 274 315 9,000 -480 Descending FlightAware UK
04:33AM 51.8871 0.0511 North 252 290 8,800 -900 Descending FlightAware UK
04:34AM 51.9087 0.0542 North 252 290 8,300 -1,500 Descending FlightAware UK
04:35AM 52.0266 0.0605 North 240 276 5,800 -1,140 Descending FlightAware UK
04:37AM 51.9994 -0.0283 244° Southwest 234 269 4,900 -660 Descending FlightAware UK
04:37AM 51.9836 -0.0426 209° Southwest 232 267 4,800 -660 Descending FlightAware UK
04:37AM 51.9593 -0.0634 208° Southwest 200 230 4,400 -1,140 Descending FlightAware UK
04:38AM 51.9461 -0.0753 209° Southwest 194 223 3,900 -1,500 Descending FlightAware UK
04:38AM 51.9213 -0.1127 223° Southwest 190 219 2,900 -960 Descending FlightAware UK
04:39AM 51.9133 -0.1399 245° Southwest 188 216 2,900 -180 Level FlightAware UK
04:39AM 51.9093 -0.1616 253° West 186 214 2,800 -720 Descending FlightAware UK
04:39AM 51.9062 -0.1829 257° West 178 205 2,500 -900 Descending FlightAware UK
04:40AM 51.9031 -0.2026 256° West 168 193 2,300 -720 Descending FlightAware UK
04:40AM 51.8955 -0.2476 255° West 162 186 1,800 -840 Descending FlightAware UK
04:41AM 51.8879 -0.2924 255° West 158 182 1,200 -780 Descending FlightAware UK
04:41AM 51.8829 -0.3206 254° West 144 166 900 -780 Descending FlightAware UK
04:42AM 51.8799 -0.3379 254° West 146 168 600 -900 Descending FlightAware UK
04:42AM 51.8757 -0.3617 254° West 146 168 300 -780 Descending FlightAware UK